Time;durP1;ratioP1;P1;durP2;ratioP2;P2;SDS_P1;SDS_P2;PMS_P1;PMS_P2;Temp;Humidity;BMP_temperature;BMP_pressure;BME280_temperature;BME280_humidity;BME280_pressure;Samples;Min_cycle;Max_cycle;Signal;HPM_P1;HPM_P2
2021/05/31 00:00:40;;;;;;;16.63;6.47;;;12.10;99.90;;;;;;5008398;28;20106;-72
2021/05/31 00:03:06;;;;;;;19.67;6.90;;;12.10;99.90;;;;;;5008472;28;20031;-73
2021/05/31 00:05:31;;;;;;;18.35;6.53;;;12.10;99.90;;;;;;5008259;28;20096;-71
2021/05/31 00:07:57;;;;;;;14.23;6.70;;;12.10;99.90;;;;;;5008284;28;20022;-72
2021/05/31 00:10:24;;;;;;;18.63;6.32;;;12.00;99.90;;;;;;5008464;28;20041;-72
2021/05/31 00:12:50;;;;;;;15.25;6.60;;;12.00;99.90;;;;;;5008335;28;20045;-71
2021/05/31 00:15:17;;;;;;;17.20;7.25;;;11.90;99.90;;;;;;5007999;28;20030;-73
2021/05/31 00:17:43;;;;;;;25.13;7.65;;;11.90;99.90;;;;;;5007114;28;20026;-72
2021/05/31 00:20:10;;;;;;;11.52;5.82;;;11.90;99.90;;;;;;5008264;28;20027;-72
2021/05/31 00:22:37;;;;;;;16.50;7.68;;;11.90;99.90;;;;;;5007037;28;20026;-72
2021/05/31 00:25:04;;;;;;;20.40;6.85;;;11.80;99.90;;;;;;5008112;28;20098;-72
2021/05/31 00:27:30;;;;;;;12.02;6.15;;;11.90;99.90;;;;;;5007543;28;20050;-72
2021/05/31 00:29:55;;;;;;;14.73;6.40;;;11.90;99.90;;;;;;5007885;28;20074;-72
2021/05/31 00:32:21;;;;;;;20.17;6.07;;;11.80;99.90;;;;;;5008284;28;20034;-73
2021/05/31 00:34:47;;;;;;;15.07;7.80;;;11.80;99.90;;;;;;5007948;28;20038;-73
2021/05/31 00:37:14;;;;;;;13.52;6.82;;;11.80;99.90;;;;;;5007704;28;20022;-71
2021/05/31 00:39:40;;;;;;;11.68;5.53;;;11.70;99.90;;;;;;5007875;28;20026;-72
2021/05/31 00:42:06;;;;;;;13.02;6.97;;;11.70;99.90;;;;;;5007861;28;20023;-71
2021/05/31 00:44:32;;;;;;;12.38;5.85;;;11.70;99.90;;;;;;5007640;28;20054;-71
2021/05/31 00:46:58;;;;;;;15.48;6.50;;;11.70;99.90;;;;;;5007839;28;20049;-72
2021/05/31 00:49:28;;;;;;;19.05;7.30;;;11.70;99.90;;;;;;5006204;28;20030;-72
2021/05/31 00:51:55;;;;;;;16.55;7.13;;;11.60;99.90;;;;;;5006271;28;20065;-71
2021/05/31 00:54:22;;;;;;;15.63;7.35;;;11.60;99.90;;;;;;5006382;28;20022;-71
2021/05/31 00:56:49;;;;;;;21.00;7.03;;;11.60;99.90;;;;;;5006035;28;20031;-72
2021/05/31 00:59:15;;;;;;;15.85;6.28;;;11.50;99.90;;;;;;5006215;28;20026;-73
2021/05/31 01:01:40;;;;;;;12.27;6.43;;;11.50;99.90;;;;;;5007624;28;20030;-71
2021/05/31 01:04:06;;;;;;;15.57;6.93;;;11.50;99.90;;;;;;5007458;28;20517;-71
2021/05/31 01:06:40;;;;;;;15.98;6.60;;;11.50;99.90;;;;;;5005493;28;20483;-72
2021/05/31 01:09:24;;;;;;;14.63;6.57;;;11.40;99.90;;;;;;5007571;28;20093;-71
2021/05/31 01:12:06;;;;;;;11.73;5.95;;;11.50;99.90;;;;;;5007152;28;20034;-71
2021/05/31 01:14:46;;;;;;;16.95;6.57;;;11.40;99.90;;;;;;5007540;28;20034;-70
2021/05/31 01:17:18;;;;;;;14.15;6.70;;;11.30;99.90;;;;;;5006101;28;20094;-71
2021/05/31 01:19:47;;;;;;;15.88;6.68;;;11.30;99.90;;;;;;5006868;28;20022;-72
2021/05/31 01:22:13;;;;;;;24.35;6.63;;;11.30;99.90;;;;;;5006120;28;20026;-72
2021/05/31 01:24:49;;;;;;;14.70;6.57;;;11.30;99.90;;;;;;5007041;28;20113;-72
2021/05/31 01:27:20;;;;;;;13.35;5.97;;;11.20;99.90;;;;;;5006808;28;20105;-72
2021/05/31 01:29:59;;;;;;;18.80;7.38;;;11.20;99.90;;;;;;5006959;28;20022;-70
2021/05/31 01:32:30;;;;;;;13.52;6.60;;;11.20;99.90;;;;;;5005337;28;20065;-72
2021/05/31 01:34:58;;;;;;;15.85;6.65;;;11.10;99.90;;;;;;5022958;28;20108;-71
2021/05/31 01:37:26;;;;;;;21.65;8.60;;;11.10;99.90;;;;;;5020779;28;20034;-72
2021/05/31 01:39:56;;;;;;;15.43;7.28;;;11.00;99.90;;;;;;5006573;28;20065;-71
2021/05/31 01:42:25;;;;;;;14.18;6.50;;;11.00;99.90;;;;;;5025426;28;20057;-71
2021/05/31 01:44:50;;;;;;;13.57;6.60;;;11.00;99.90;;;;;;5026119;28;20018;-71
2021/05/31 01:47:17;;;;;;;23.52;7.15;;;11.10;99.90;;;;;;5025947;28;20048;-71
2021/05/31 01:49:44;;;;;;;19.25;7.25;;;11.00;99.90;;;;;;5006824;28;20060;-73
2021/05/31 01:52:12;;;;;;;23.15;6.60;;;10.90;99.90;;;;;;5006372;28;20484;-72
2021/05/31 01:54:38;;;;;;;11.30;6.20;;;10.90;99.90;;;;;;5006497;28;20026;-72
2021/05/31 01:57:07;;;;;;;19.15;7.28;;;10.90;99.90;;;;;;5006665;28;20415;-71
2021/05/31 01:59:34;;;;;;;22.38;6.30;;;10.90;99.90;;;;;;5006146;28;20034;-71
2021/05/31 02:02:00;;;;;;;19.92;8.10;;;10.90;99.90;;;;;;5005208;28;20053;-70
2021/05/31 02:04:26;;;;;;;26.67;6.93;;;10.90;99.90;;;;;;5006394;28;20037;-72
2021/05/31 02:06:52;;;;;;;18.05;8.00;;;10.90;99.90;;;;;;5005835;28;20042;-71
2021/05/31 02:09:22;;;;;;;20.00;6.90;;;10.90;99.90;;;;;;5006147;28;20082;-70
2021/05/31 02:12:06;;;;;;;17.58;8.38;;;10.90;99.90;;;;;;5006056;28;20379;-70
2021/05/31 02:14:43;;;;;;;;;;;10.80;99.90;;;;;;5006163;28;20033;-71
2021/05/31 02:17:33;;;;;;;18.67;8.10;;;10.80;99.90;;;;;;5006403;28;19906;-71
2021/05/31 02:20:03;;;;;;;16.35;7.80;;;10.80;99.90;;;;;;5005949;28;20027;-71
2021/05/31 02:22:32;;;;;;;27.40;9.70;;;10.90;99.90;;;;;;5005829;28;20034;-70
2021/05/31 02:24:57;;;;;;;21.13;8.68;;;10.80;99.90;;;;;;5005946;28;20030;-71
2021/05/31 02:27:24;;;;;;;20.58;7.35;;;10.90;99.90;;;;;;5005058;28;20042;-72
2021/05/31 02:29:49;;;;;;;15.80;7.82;;;10.90;99.90;;;;;;5020652;28;20042;-72
2021/05/31 02:32:15;;;;;;;17.60;7.97;;;10.90;99.90;;;;;;5004683;28;20348;-70
2021/05/31 02:34:41;;;;;;;20.10;7.70;;;10.90;99.90;;;;;;5005461;28;20039;-71
2021/05/31 02:37:10;;;;;;;14.35;7.32;;;10.90;99.90;;;;;;5005978;28;20035;-70
2021/05/31 02:39:36;;;;;;;17.33;8.73;;;10.90;99.90;;;;;;5005849;28;20061;-71
2021/05/31 02:42:03;;;;;;;19.67;8.38;;;10.90;99.90;;;;;;5005274;28;20041;-70
2021/05/31 02:44:28;;;;;;;19.13;9.15;;;10.90;99.90;;;;;;5005669;28;20026;-70
2021/05/31 02:46:54;;;;;;;16.63;7.75;;;10.90;99.90;;;;;;5020482;28;20091;-70
2021/05/31 02:49:19;;;;;;;16.77;7.70;;;10.90;99.90;;;;;;5005138;28;20474;-71
2021/05/31 02:51:45;;;;;;;19.42;7.60;;;10.90;99.90;;;;;;5005582;28;20061;-70
2021/05/31 02:54:12;;;;;;;17.98;8.65;;;10.80;99.90;;;;;;5005354;28;20026;-70
2021/05/31 02:56:39;;;;;;;21.20;8.63;;;10.80;99.90;;;;;;5005410;28;20018;-70
2021/05/31 02:59:05;;;;;;;16.27;8.10;;;10.80;99.90;;;;;;5005564;28;20035;-70
2021/05/31 03:01:30;;;;;;;15.38;7.20;;;10.80;99.90;;;;;;5005279;28;20042;-71
2021/05/31 03:03:56;;;;;;;15.10;7.28;;;10.80;99.90;;;;;;5005327;28;20214;-71
2021/05/31 03:06:21;;;;;;;14.65;6.65;;;10.70;99.90;;;;;;5005226;28;20078;-70
2021/05/31 03:08:47;;;;;;;17.60;7.82;;;10.70;99.90;;;;;;5004952;28;20054;-69
2021/05/31 03:11:13;;;;;;;15.27;7.38;;;10.70;99.90;;;;;;5005209;28;20049;-71
2021/05/31 03:13:39;;;;;;;13.57;6.78;;;10.70;99.90;;;;;;5005294;28;20027;-70
2021/05/31 03:16:06;;;;;;;14.15;6.85;;;10.70;99.90;;;;;;5004951;28;20046;-71
2021/05/31 03:18:32;;;;;;;16.23;7.32;;;10.60;99.90;;;;;;5005081;28;20045;-70
2021/05/31 03:20:58;;;;;;;22.05;7.05;;;10.60;99.90;;;;;;5005075;28;20027;-70
2021/05/31 03:23:23;;;;;;;14.05;7.22;;;10.60;99.90;;;;;;5005059;28;20022;-69
2021/05/31 03:25:49;;;;;;;15.80;7.75;;;10.60;99.90;;;;;;5004643;28;20030;-71
2021/05/31 03:28:15;;;;;;;17.42;7.18;;;10.60;99.90;;;;;;5004696;28;20046;-70
2021/05/31 03:30:40;;;;;;;16.52;6.85;;;10.50;99.90;;;;;;5006759;28;20065;-72
2021/05/31 03:33:06;;;;;;;15.50;7.75;;;10.50;99.90;;;;;;5024252;28;20026;-69
2021/05/31 03:35:32;;;;;;;15.57;7.10;;;10.50;99.90;;;;;;5008891;28;20022;-72
2021/05/31 03:37:57;;;;;;;15.43;6.80;;;10.50;99.90;;;;;;5007378;28;20026;-72
2021/05/31 03:40:23;;;;;;;17.52;7.40;;;10.50;99.90;;;;;;5008749;28;20125;-71
2021/05/31 03:42:50;;;;;;;11.60;5.88;;;10.50;99.90;;;;;;5008507;28;20049;-72
2021/05/31 03:45:16;;;;;;;15.10;6.90;;;10.40;99.90;;;;;;5008724;28;20044;-72
2021/05/31 03:47:43;;;;;;;17.15;7.03;;;10.40;99.90;;;;;;5008931;28;20029;-69
2021/05/31 03:50:09;;;;;;;14.82;7.65;;;10.40;99.90;;;;;;5008699;28;20040;-72
2021/05/31 03:52:35;;;;;;;12.07;6.18;;;10.40;99.90;;;;;;5008597;28;20089;-71
2021/05/31 03:55:00;;;;;;;13.85;6.60;;;10.40;99.90;;;;;;5008772;28;20018;-71
2021/05/31 03:57:26;;;;;;;12.90;6.05;;;10.40;99.90;;;;;;5006970;28;20735;-71
2021/05/31 03:59:52;;;;;;;15.05;6.07;;;10.40;99.90;;;;;;5008587;28;20133;-72
2021/05/31 04:02:19;;;;;;;12.82;6.28;;;10.40;99.90;;;;;;5008667;28;20026;-71
2021/05/31 04:04:47;;;;;;;26.33;7.85;;;10.40;99.90;;;;;;5008451;28;20031;-70
2021/05/31 04:12:44;;;;;;;13.88;6.55;;;10.30;99.90;;;;;;5008395;28;20060;-70
2021/05/31 04:15:10;;;;;;;14.50;5.57;;;10.40;99.90;;;;;;5008565;28;20035;-71
2021/05/31 04:17:36;;;;;;;13.18;5.90;;;10.40;99.90;;;;;;5008272;28;20026;-71
2021/05/31 04:20:02;;;;;;;12.13;6.63;;;10.40;99.90;;;;;;5008281;28;20030;-70
2021/05/31 04:22:27;;;;;;;14.23;6.75;;;10.40;99.90;;;;;;5008296;28;20034;-72
2021/05/31 04:24:53;;;;;;;26.85;7.35;;;10.40;99.90;;;;;;5007739;28;20023;-71
2021/05/31 04:27:19;;;;;;;14.63;7.07;;;10.40;99.90;;;;;;5006380;28;20050;-70
2021/05/31 04:29:45;;;;;;;16.05;6.65;;;10.50;99.90;;;;;;5008097;28;20038;-72
2021/05/31 04:32:10;;;;;;;15.65;6.28;;;10.50;99.90;;;;;;5008026;28;20442;-72
2021/05/31 04:34:36;;;;;;;15.98;7.50;;;10.50;99.90;;;;;;5006926;28;20029;-71
2021/05/31 04:37:02;;;;;;;20.02;7.43;;;10.50;99.90;;;;;;5007903;28;20109;-71
2021/05/31 04:39:28;;;;;;;16.60;6.90;;;10.60;99.90;;;;;;5007712;28;20061;-72
2021/05/31 04:41:53;;;;;;;17.48;6.68;;;10.60;99.90;;;;;;5006181;28;20066;-72
2021/05/31 04:44:19;;;;;;;15.40;7.20;;;10.60;99.90;;;;;;5007801;28;20027;-72
2021/05/31 04:46:45;;;;;;;16.85;6.72;;;10.70;99.90;;;;;;5007557;28;20049;-70
2021/05/31 04:49:10;;;;;;;19.35;7.20;;;10.70;99.90;;;;;;5007644;28;20034;-73
2021/05/31 04:51:37;;;;;;;19.98;6.78;;;10.80;99.90;;;;;;5007733;28;20026;-70
2021/05/31 04:54:04;;;;;;;15.13;6.60;;;10.80;99.90;;;;;;5007309;28;20022;-71
2021/05/31 04:56:29;;;;;;;13.27;6.22;;;10.80;99.90;;;;;;5022503;28;20023;-70
2021/05/31 04:58:55;;;;;;;11.10;5.80;;;10.90;99.90;;;;;;5007398;28;20037;-72
2021/05/31 05:01:21;;;;;;;13.77;6.53;;;10.90;99.90;;;;;;5007268;28;20026;-71
2021/05/31 05:03:47;;;;;;;16.65;7.30;;;11.00;99.90;;;;;;5007313;28;20026;-72
2021/05/31 05:06:12;;;;;;;18.85;7.47;;;11.00;99.90;;;;;;5007498;28;20442;-73
2021/05/31 05:08:38;;;;;;;16.15;7.63;;;11.00;99.90;;;;;;5006071;28;20038;-71
2021/05/31 05:11:04;;;;;;;17.70;7.63;;;11.10;99.90;;;;;;5007501;28;20057;-71
2021/05/31 05:13:29;;;;;;;16.70;6.70;;;11.20;99.90;;;;;;5007067;28;20398;-71
2021/05/31 05:15:55;;;;;;;16.50;7.18;;;11.20;99.90;;;;;;5006895;28;20030;-70
2021/05/31 05:18:20;;;;;;;11.48;5.97;;;11.30;99.90;;;;;;5005889;28;20169;-71
2021/05/31 05:20:46;;;;;;;14.30;6.55;;;11.30;99.90;;;;;;5006910;28;20081;-72
2021/05/31 05:23:12;;;;;;;12.27;5.88;;;11.30;99.90;;;;;;5023178;28;20432;-72
2021/05/31 05:25:38;;;;;;;11.88;5.63;;;11.40;99.90;;;;;;5022586;28;20046;-70
2021/05/31 05:28:04;;;;;;;14.43;7.20;;;11.40;99.90;;;;;;5024802;28;20121;-69
2021/05/31 05:30:32;;;;;;;15.77;6.22;;;11.50;99.90;;;;;;5022190;28;20399;-70
2021/05/31 05:33:01;;;;;;;16.95;7.28;;;11.50;99.90;;;;;;5022372;28;20069;-69
2021/05/31 05:35:34;;;;;;;14.38;6.35;;;11.50;99.90;;;;;;5018881;28;20026;-69
2021/05/31 05:46:26;;;;;;;11.30;5.97;;;11.70;99.90;;;;;;5026550;28;20056;-71
2021/05/31 05:48:20;;;;;;;11.32;5.43;;;11.80;99.90;;;;;;5016769;28;20034;-71
2021/05/31 05:50:45;;;;;;;12.50;5.43;;;11.90;99.90;;;;;;5026108;28;20120;-72
2021/05/31 05:53:11;;;;;;;9.65;4.55;;;11.90;99.90;;;;;;5025915;28;20029;-72
2021/05/31 05:55:37;;;;;;;10.45;4.55;;;12.00;99.90;;;;;;5014001;28;20030;-71
2021/05/31 05:58:03;;;;;;;7.88;4.15;;;12.00;99.90;;;;;;5011219;28;20038;-71
2021/05/31 06:00:31;;;;;;;9.73;4.45;;;12.10;99.90;;;;;;5023882;28;20513;-71
2021/05/31 06:02:57;;;;;;;8.75;4.53;;;12.10;99.90;;;;;;5023902;28;20089;-70
2021/05/31 06:05:23;;;;;;;10.57;4.72;;;12.20;99.90;;;;;;5025634;28;20038;-70
2021/05/31 06:07:49;;;;;;;9.48;4.82;;;12.20;99.90;;;;;;5018044;28;20026;-72
2021/05/31 06:10:16;;;;;;;8.43;4.30;;;12.30;99.90;;;;;;5015676;28;20141;-71
2021/05/31 06:12:42;;;;;;;10.30;5.32;;;12.30;99.90;;;;;;5008258;28;20033;-72
2021/05/31 06:15:10;;;;;;;8.65;3.83;;;12.40;99.90;;;;;;5004963;28;20097;-70
2021/05/31 06:17:36;;;;;;;10.63;3.95;;;12.40;99.90;;;;;;5005995;28;20050;-71
2021/05/31 06:20:04;;;;;;;9.27;4.30;;;12.50;99.90;;;;;;5005865;28;20031;-73
2021/05/31 06:22:38;;;;;;;8.02;3.72;;;12.60;99.90;;;;;;5004215;28;20741;-72
2021/05/31 06:25:08;;;;;;;7.88;3.65;;;12.60;99.90;;;;;;5004347;28;20081;-73
2021/05/31 06:27:34;;;;;;;9.48;4.22;;;12.70;99.90;;;;;;5005514;28;20081;-72
2021/05/31 06:30:00;;;;;;;9.25;4.22;;;12.80;99.90;;;;;;5005657;28;20054;-71
2021/05/31 06:32:25;;;;;;;9.68;4.43;;;12.80;99.90;;;;;;5005724;28;20026;-72
2021/05/31 06:34:51;;;;;;;9.25;4.18;;;12.90;99.90;;;;;;5005661;28;20034;-72
2021/05/31 06:37:17;;;;;;;6.65;3.67;;;12.90;99.90;;;;;;5003867;28;20124;-74
2021/05/31 06:39:42;;;;;;;10.93;4.88;;;13.00;99.90;;;;;;5005461;28;20026;-72
2021/05/31 06:42:08;;;;;;;9.23;3.70;;;13.00;99.90;;;;;;5005613;28;20037;-73
2021/05/31 06:44:34;;;;;;;10.85;4.40;;;13.10;99.90;;;;;;5005433;28;20030;-70
2021/05/31 06:47:00;;;;;;;16.40;4.68;;;13.20;99.90;;;;;;5005260;28;20541;-71
2021/05/31 06:49:26;;;;;;;8.40;4.10;;;13.20;99.90;;;;;;5005306;28;20026;-71
2021/05/31 06:51:51;;;;;;;12.13;3.90;;;13.30;99.90;;;;;;5005044;28;20023;-72
2021/05/31 06:54:17;;;;;;;11.00;4.82;;;13.40;99.90;;;;;;5020314;28;20026;-72
2021/05/31 06:56:43;;;;;;;9.88;4.55;;;13.50;99.90;;;;;;5005231;28;20382;-72
2021/05/31 06:59:08;;;;;;;6.43;3.60;;;13.50;99.90;;;;;;5005398;28;20038;-72
2021/05/31 07:01:34;;;;;;;8.63;4.00;;;13.70;99.90;;;;;;5005045;28;20030;-73
2021/05/31 07:04:00;;;;;;;7.22;3.05;;;13.80;99.90;;;;;;5004884;28;20031;-73
2021/05/31 07:06:25;;;;;;;5.32;3.03;;;13.90;99.90;;;;;;5020455;28;20048;-71
2021/05/31 07:08:51;;;;;;;10.45;3.95;;;14.00;99.90;;;;;;5016483;28;20049;-73
2021/05/31 07:11:18;;;;;;;6.22;3.50;;;14.10;99.90;;;;;;5010167;28;20038;-73
2021/05/31 07:13:46;;;;;;;7.63;3.83;;;14.10;99.90;;;;;;5005411;28;20094;-73
2021/05/31 07:16:15;;;;;;;5.20;2.90;;;14.30;99.90;;;;;;5004738;28;20051;-72
2021/05/31 07:18:42;;;;;;;8.50;2.92;;;14.30;99.90;;;;;;5004796;28;20479;-73
2021/05/31 07:21:08;;;;;;;6.80;3.70;;;14.40;99.90;;;;;;5003978;28;20023;-73
2021/05/31 07:23:36;;;;;;;5.60;3.17;;;14.50;99.90;;;;;;5004782;28;20037;-73
2021/05/31 07:26:03;;;;;;;5.05;2.60;;;14.60;99.90;;;;;;5003410;28;20394;-73
2021/05/31 07:28:28;;;;;;;8.18;3.00;;;14.70;99.90;;;;;;5003324;28;20050;-74
2021/05/31 07:30:54;;;;;;;6.07;2.70;;;14.80;99.90;;;;;;5004642;28;20475;-74
2021/05/31 07:33:19;;;;;;;10.45;3.67;;;14.90;99.90;;;;;;5003063;28;20031;-73
2021/05/31 07:35:45;;;;;;;4.78;2.70;;;15.00;99.90;;;;;;5007357;28;20394;-73
2021/05/31 07:38:11;;;;;;;4.35;2.08;;;15.10;99.90;;;;;;5035695;28;20069;-74
2021/05/31 07:40:37;;;;;;;3.85;2.25;;;15.10;99.90;;;;;;5044097;28;20037;-71
2021/05/31 07:43:02;;;;;;;3.15;1.90;;;15.30;99.90;;;;;;5043824;28;20029;-70
2021/05/31 07:45:28;;;;;;;4.85;1.92;;;15.50;99.90;;;;;;5043817;28;20089;-72
2021/05/31 07:47:54;;;;;;;4.43;2.63;;;15.70;99.90;;;;;;5044243;28;20036;-71
2021/05/31 07:50:20;;;;;;;4.07;1.85;;;15.80;99.90;;;;;;5044240;28;20026;-72
2021/05/31 07:52:46;;;;;;;5.97;1.73;;;15.80;99.90;;;;;;5043740;28;20168;-72
2021/05/31 07:55:15;;;;;;;5.75;2.30;;;16.00;99.90;;;;;;5043811;28;20022;-70
2021/05/31 07:57:43;;;;;;;7.50;2.67;;;16.10;99.90;;;;;;5043664;28;20435;-72
2021/05/31 08:00:11;;;;;;;7.03;2.22;;;16.20;99.90;;;;;;5042280;28;20033;-71
2021/05/31 08:02:38;;;;;;;5.00;2.03;;;16.30;99.90;;;;;;5020831;28;20034;-71
2021/05/31 08:05:04;;;;;;;4.53;2.03;;;16.30;99.90;;;;;;5023700;28;20029;-72
2021/05/31 08:07:29;;;;;;;3.65;2.25;;;16.40;99.90;;;;;;5002842;28;20034;-73
2021/05/31 08:09:55;;;;;;;2.72;1.63;;;16.40;99.90;;;;;;5004530;28;20041;-69
2021/05/31 08:12:21;;;;;;;5.00;2.10;;;16.60;99.90;;;;;;5004083;28;20500;-70
2021/05/31 08:14:47;;;;;;;3.10;2.03;;;16.80;99.90;;;;;;5004055;28;20038;-70
2021/05/31 08:17:13;;;;;;;2.70;1.77;;;16.90;99.90;;;;;;5010759;28;20083;-73
2021/05/31 08:19:38;;;;;;;4.80;2.00;;;17.00;99.90;;;;;;5024950;28;20030;-69
2021/05/31 08:22:05;;;;;;;3.78;1.80;;;17.10;99.90;;;;;;5013436;28;20033;-71
2021/05/31 08:24:31;;;;;;;2.65;1.73;;;17.20;99.90;;;;;;5026670;28;20404;-71
2021/05/31 08:40:56;;;;;;;1.05;0.80;;;17.80;99.90;;;;;;5038306;28;20042;-71
2021/05/31 08:43:21;;;;;;;4.88;1.33;;;17.90;99.90;;;;;;5045880;28;20025;-70
2021/05/31 08:45:47;;;;;;;1.48;0.93;;;18.10;99.90;;;;;;5046618;28;20087;-71
2021/05/31 08:48:13;;;;;;;2.30;1.23;;;18.20;99.90;;;;;;5046639;28;20385;-69
2021/05/31 08:50:40;;;;;;;1.52;0.82;;;18.20;99.90;;;;;;5046504;28;20095;-70
2021/05/31 08:53:07;;;;;;;2.53;1.45;;;18.30;99.90;;;;;;5046720;28;20064;-69
2021/05/31 08:55:35;;;;;;;2.13;1.08;;;18.40;99.90;;;;;;5046589;28;20081;-72
2021/05/31 08:58:02;;;;;;;4.20;1.48;;;18.60;99.90;;;;;;5033406;28;20026;-70
2021/05/31 09:00:30;;;;;;;1.63;0.98;;;18.80;99.90;;;;;;5026931;28;20050;-70
2021/05/31 09:03:01;;;;;;;2.65;1.15;;;19.00;99.90;;;;;;5026445;28;20030;-70
2021/05/31 09:05:42;;;;;;;1.45;0.85;;;19.20;99.90;;;;;;5027154;28;20044;-70
2021/05/31 09:08:15;;;;;;;2.92;1.40;;;19.40;99.90;;;;;;5030519;28;20457;-72
2021/05/31 09:11:00;;;;;;;2.80;1.40;;;19.50;99.90;;;;;;5026257;28;20026;-73
2021/05/31 09:13:30;;;;;;;3.10;1.33;;;19.60;99.90;;;;;;5043284;28;20022;-71
2021/05/31 09:16:24;;;;;;;2.45;1.48;;;19.80;99.90;;;;;;5046243;28;20776;-67
2021/05/31 09:19:04;;;;;;;3.80;1.47;;;19.90;99.90;;;;;;5036783;28;20097;-71
2021/05/31 09:21:32;;;;;;;4.57;1.42;;;20.00;99.90;;;;;;5026898;28;20264;-69
2021/05/31 09:24:02;;;;;;;4.63;1.27;;;20.00;99.90;;;;;;5025576;28;20036;-70
2021/05/31 09:26:28;;;;;;;2.47;1.17;;;20.20;99.90;;;;;;5029655;28;20048;-70
2021/05/31 09:28:59;;;;;;;4.90;1.63;;;20.20;99.90;;;;;;5032869;28;20034;-71
2021/05/31 09:31:26;;;;;;;2.38;1.70;;;20.20;99.90;;;;;;5031496;28;20120;-71
2021/05/31 09:34:15;;;;;;;4.47;1.73;;;20.30;99.90;;;;;;5031630;28;20034;-69
2021/05/31 09:36:51;;;;;;;2.50;1.38;;;20.50;99.90;;;;;;5035726;28;20397;-69
2021/05/31 09:39:18;;;;;;;2.28;1.75;;;20.60;99.90;;;;;;5043587;28;20140;-69
2021/05/31 09:41:44;;;;;;;2.25;1.08;;;20.70;99.90;;;;;;5044304;28;20033;-70
2021/05/31 09:44:10;;;;;;;2.80;1.10;;;20.90;99.90;;;;;;5045748;28;20048;-72
2021/05/31 09:46:44;;;;;;;1.83;1.38;;;21.00;99.90;;;;;;5045778;28;20122;-69
2021/05/31 09:49:16;;;;;;;2.17;1.20;;;21.10;99.90;;;;;;5046144;28;20069;-70
2021/05/31 09:52:00;;;;;;;1.83;1.10;;;21.20;99.90;;;;;;5045432;28;20063;-68
2021/05/31 09:54:43;;;;;;;1.25;0.93;;;21.30;99.90;;;;;;5044423;28;20089;-69
2021/05/31 09:57:15;;;;;;;8.43;1.85;;;21.50;99.90;;;;;;5044612;28;20148;-70
2021/05/31 09:59:43;;;;;;;2.25;1.30;;;21.50;99.90;;;;;;5045268;28;20469;-70
2021/05/31 10:02:11;;;;;;;3.40;1.73;;;21.60;99.90;;;;;;5045702;28;20092;-70
2021/05/31 10:04:48;;;;;;;2.10;1.25;;;21.60;99.90;;;;;;5036190;28;20084;-69
2021/05/31 10:09:43;;;;;;;1.98;1.40;;;21.80;99.90;;;;;;5023393;28;20076;-70
2021/05/31 10:12:10;;;;;;;1.60;1.15;;;21.90;99.90;;;;;;5025307;28;20030;-70
2021/05/31 10:14:38;;;;;;;5.07;1.98;;;22.00;99.90;;;;;;5025211;28;20032;-74
2021/05/31 10:17:05;;;;;;;3.80;1.80;;;22.00;99.90;;;;;;5026126;28;20064;-71
2021/05/31 10:19:33;;;;;;;3.80;1.05;;;22.10;99.90;;;;;;5032374;28;20041;-71
2021/05/31 10:21:59;;;;;;;4.03;1.60;;;22.20;99.90;;;;;;5035057;28;20063;-71
2021/05/31 10:24:25;;;;;;;3.95;1.58;;;22.30;99.90;;;;;;5030161;28;20037;-70
2021/05/31 10:26:52;;;;;;;4.60;1.80;;;22.30;99.90;;;;;;5025239;28;20106;-70
2021/05/31 10:29:18;;;;;;;2.55;1.38;;;22.50;99.90;;;;;;5025366;28;20022;-69
2021/05/31 10:31:45;;;;;;;2.17;1.30;;;22.70;99.90;;;;;;5025465;28;20063;-70
2021/05/31 10:34:22;;;;;;;2.22;1.42;;;22.80;99.90;;;;;;5025270;28;20080;-70
2021/05/31 10:36:51;;;;;;;2.97;1.50;;;23.00;99.90;;;;;;5025144;28;20041;-70
2021/05/31 10:39:28;;;;;;;4.65;2.05;;;23.10;99.90;;;;;;5024087;28;20046;-70
2021/05/31 10:42:05;;;;;;;5.50;1.05;;;23.30;99.90;;;;;;5025573;28;20030;-71
2021/05/31 10:44:32;;;;;;;5.50;1.52;;;23.50;99.90;;;;;;5025333;28;20025;-69
2021/05/31 10:47:12;;;;;;;8.02;1.83;;;23.50;99.90;;;;;;5025463;28;20501;-69
2021/05/31 10:49:39;;;;;;;2.92;1.25;;;23.60;99.90;;;;;;5025057;28;20049;-72
2021/05/31 10:52:05;;;;;;;1.52;1.00;;;23.80;99.90;;;;;;5023672;28;20021;-73
2021/05/31 10:54:36;;;;;;;2.17;1.25;;;23.90;99.90;;;;;;5024329;28;20068;-73
2021/05/31 10:57:09;;;;;;;1.70;1.38;;;24.00;99.90;;;;;;5009863;28;20022;-71
2021/05/31 10:59:49;;;;;;;2.17;1.40;;;24.10;99.90;;;;;;5005297;28;20037;-70
2021/05/31 11:02:27;;;;;;;2.67;1.60;;;24.20;99.90;;;;;;5004290;28;20445;-69
2021/05/31 11:05:09;;;;;;;2.72;1.48;;;24.30;99.90;;;;;;5004025;28;20030;-71
2021/05/31 11:07:35;;;;;;;2.85;1.38;;;24.40;99.90;;;;;;5018657;28;20034;-72
2021/05/31 11:10:12;;;;;;;2.30;1.38;;;24.60;99.90;;;;;;5023554;28;20034;-68
2021/05/31 11:12:38;;;;;;;4.30;1.40;;;24.70;99.90;;;;;;5023522;28;20026;-72
2021/05/31 11:15:12;;;;;;;1.90;1.02;;;24.90;99.90;;;;;;5023787;28;20070;-72
2021/05/31 11:17:50;;;;;;;3.65;1.48;;;25.10;99.90;;;;;;5010049;28;20112;-71
2021/05/31 11:20:17;;;;;;;2.63;1.23;;;25.30;99.90;;;;;;5023495;28;20041;-75
2021/05/31 11:22:56;;;;;;;4.40;1.10;;;25.40;99.90;;;;;;5029292;28;20766;-72
2021/05/31 11:25:22;;;;;;;2.00;1.48;;;25.60;99.90;;;;;;5036689;28;20584;-69
2021/05/31 11:27:54;;;;;;;4.47;1.42;;;25.70;99.90;;;;;;5043437;28;20028;-68
2021/05/31 11:30:23;;;;;;;1.60;1.15;;;25.90;99.90;;;;;;5041254;28;20025;-69
2021/05/31 11:32:51;;;;;;;1.38;1.08;;;26.00;99.90;;;;;;5043337;28;20033;-70
2021/05/31 11:35:16;;;;;;;3.00;1.25;;;26.20;99.90;;;;;;5043423;28;20033;-69
2021/05/31 11:37:43;;;;;;;3.33;1.20;;;26.40;99.90;;;;;;5042993;28;20047;-70
2021/05/31 11:40:21;;;;;;;1.48;0.98;;;26.60;99.90;;;;;;5043096;28;20047;-70
2021/05/31 11:42:54;;;;;;;1.73;0.90;;;26.80;99.90;;;;;;5042041;28;20041;-70
2021/05/31 11:45:22;;;;;;;1.45;0.93;;;26.80;99.90;;;;;;5042822;28;20048;-70
2021/05/31 11:47:59;;;;;;;1.98;1.10;;;27.00;99.90;;;;;;5043419;28;20026;-70
2021/05/31 11:50:26;;;;;;;2.83;1.40;;;27.20;99.90;;;;;;5041944;28;20033;-71
2021/05/31 11:52:51;;;;;;;1.85;0.75;;;27.40;99.90;;;;;;5046635;28;20520;-70
2021/05/31 11:55:21;;;;;;;1.30;0.98;;;27.60;99.90;;;;;;5047225;28;20037;-72
2021/05/31 11:57:47;;;;;;;3.97;1.42;;;27.70;99.90;;;;;;5047433;28;20028;-70
2021/05/31 12:00:20;;;;;;;2.75;1.10;;;27.80;99.90;;;;;;5047692;28;20085;-70
2021/05/31 12:02:46;;;;;;;2.13;1.40;;;27.80;97.50;;;;;;5048165;28;20108;-70
2021/05/31 12:05:13;;;;;;;3.50;1.05;;;27.90;99.60;;;;;;5047676;28;20021;-71
2021/05/31 12:07:43;;;;;;;3.30;1.02;;;28.00;98.10;;;;;;5048000;28;20029;-72
2021/05/31 12:10:09;;;;;;;1.67;1.13;;;28.10;98.40;;;;;;5045905;28;20033;-72
2021/05/31 12:12:35;;;;;;;4.10;1.10;;;28.20;98.70;;;;;;5039171;28;20030;-70
2021/05/31 12:15:01;;;;;;;1.90;1.20;;;28.50;98.50;;;;;;5035004;28;20060;-67
2021/05/31 12:17:28;;;;;;;1.30;1.00;;;28.60;97.10;;;;;;5027779;28;20159;-66
2021/05/31 12:19:55;;;;;;;2.03;1.00;;;28.70;96.30;;;;;;5027777;28;20089;-68
2021/05/31 12:22:26;;;;;;;1.38;0.95;;;28.70;93.10;;;;;;5028020;28;20026;-69
2021/05/31 12:24:56;;;;;;;10.07;1.20;;;28.70;95.20;;;;;;5027831;28;20061;-70
2021/05/31 12:27:28;;;;;;;1.58;0.68;;;28.90;94.80;;;;;;5027567;28;20041;-72
2021/05/31 12:29:54;;;;;;;10.00;1.27;;;29.00;87.60;;;;;;5027818;28;20088;-69
2021/05/31 12:32:25;;;;;;;1.25;1.00;;;28.80;91.60;;;;;;5027538;28;20073;-69
2021/05/31 12:34:52;;;;;;;6.55;1.13;;;28.80;90.70;;;;;;5027746;28;20029;-70
2021/05/31 12:37:23;;;;;;;1.40;0.90;;;28.90;92.30;;;;;;5027624;28;20030;-69
2021/05/31 12:39:51;;;;;;;3.33;1.20;;;28.90;90.20;;;;;;5026912;28;20064;-68
2021/05/31 12:42:25;;;;;;;3.00;0.90;;;29.00;91.00;;;;;;5027560;28;20109;-69
2021/05/31 12:44:52;;;;;;;1.65;0.90;;;29.00;89.40;;;;;;5027386;28;20038;-68
2021/05/31 12:47:21;;;;;;;3.25;1.20;;;29.00;91.40;;;;;;5027234;28;20065;-69
2021/05/31 12:49:49;;;;;;;1.80;1.25;;;29.10;90.40;;;;;;5024913;28;20037;-70
2021/05/31 12:52:30;;;;;;;2.92;1.20;;;29.20;91.20;;;;;;5026884;28;20061;-69
2021/05/31 12:54:58;;;;;;;2.78;1.40;;;29.30;87.30;;;;;;5026151;28;20053;-69
2021/05/31 12:57:24;;;;;;;1.67;1.10;;;29.40;86.60;;;;;;5025779;28;20057;-69
2021/05/31 12:59:50;;;;;;;2.22;1.05;;;29.50;90.30;;;;;;5026804;28;20026;-67
2021/05/31 13:02:20;;;;;;;1.63;0.90;;;29.60;90.10;;;;;;5025852;28;20030;-70
2021/05/31 13:04:47;;;;;;;1.88;1.02;;;29.70;87.30;;;;;;5026106;28;20030;-71
2021/05/31 13:07:17;;;;;;;1.42;0.90;;;29.70;86.00;;;;;;5026313;28;20033;-68
2021/05/31 13:09:43;;;;;;;2.45;1.23;;;29.70;84.20;;;;;;5026309;28;20022;-71
2021/05/31 13:12:11;;;;;;;1.35;1.13;;;29.50;78.80;;;;;;5026745;28;20453;-70
2021/05/31 13:14:42;;;;;;;0.80;0.68;;;29.40;84.80;;;;;;5026207;28;20041;-71
2021/05/31 13:17:09;;;;;;;1.77;1.02;;;29.40;84.20;;;;;;5025046;28;20052;-73